sensor_id;sensor_type;location;lat;lon;timestamp;P1;durP1;ratioP1;P2;durP2;ratioP2
4448;SDS011;2237;51.870;6.160;2023-11-18T00:01:41;30.60;;;9.77;;
4448;SDS011;2237;51.870;6.160;2023-11-18T00:04:07;27.33;;;10.02;;
4448;SDS011;2237;51.870;6.160;2023-11-18T00:06:41;30.85;;;10.18;;
4448;SDS011;2237;51.870;6.160;2023-11-18T00:09:10;27.65;;;10.30;;
4448;SDS011;2237;51.870;6.160;2023-11-18T00:11:39;30.40;;;11.45;;
4448;SDS011;2237;51.870;6.160;2023-11-18T00:14:09;31.73;;;10.18;;
4448;SDS011;2237;51.870;6.160;2023-11-18T00:16:37;28.98;;;10.43;;
4448;SDS011;2237;51.870;6.160;2023-11-18T00:19:05;29.85;;;10.63;;
4448;SDS011;2237;51.870;6.160;2023-11-18T00:21:32;33.10;;;10.70;;
4448;SDS011;2237;51.870;6.160;2023-11-18T00:23:58;27.45;;;10.18;;
4448;SDS011;2237;51.870;6.160;2023-11-18T00:26:24;29.17;;;10.32;;
4448;SDS011;2237;51.870;6.160;2023-11-18T00:28:52;33.45;;;10.45;;
4448;SDS011;2237;51.870;6.160;2023-11-18T00:31:18;30.92;;;11.00;;
4448;SDS011;2237;51.870;6.160;2023-11-18T00:33:44;27.58;;;10.02;;
4448;SDS011;2237;51.870;6.160;2023-11-18T00:36:11;32.97;;;9.80;;
4448;SDS011;2237;51.870;6.160;2023-11-18T00:38:37;31.75;;;10.43;;
4448;SDS011;2237;51.870;6.160;2023-11-18T00:41:05;27.27;;;10.27;;
4448;SDS011;2237;51.870;6.160;2023-11-18T00:43:32;27.85;;;9.57;;
4448;SDS011;2237;51.870;6.160;2023-11-18T00:45:59;29.40;;;10.05;;
4448;SDS011;2237;51.870;6.160;2023-11-18T00:48:25;31.65;;;10.30;;
4448;SDS011;2237;51.870;6.160;2023-11-18T00:50:52;30.52;;;10.18;;
4448;SDS011;2237;51.870;6.160;2023-11-18T00:53:18;24.20;;;9.80;;
4448;SDS011;2237;51.870;6.160;2023-11-18T00:55:45;29.60;;;10.60;;
4448;SDS011;2237;51.870;6.160;2023-11-18T00:58:11;28.23;;;9.80;;
4448;SDS011;2237;51.870;6.160;2023-11-18T01:00:38;29.60;;;10.40;;
4448;SDS011;2237;51.870;6.160;2023-11-18T01:03:04;29.52;;;10.77;;
4448;SDS011;2237;51.870;6.160;2023-11-18T01:05:31;28.25;;;9.48;;
4448;SDS011;2237;51.870;6.160;2023-11-18T01:07:57;28.08;;;10.45;;
4448;SDS011;2237;51.870;6.160;2023-11-18T01:10:24;30.05;;;10.73;;
4448;SDS011;2237;51.870;6.160;2023-11-18T01:12:50;24.88;;;10.15;;
4448;SDS011;2237;51.870;6.160;2023-11-18T01:15:17;29.50;;;9.85;;
4448;SDS011;2237;51.870;6.160;2023-11-18T01:17:43;27.27;;;10.30;;
4448;SDS011;2237;51.870;6.160;2023-11-18T01:20:10;35.15;;;10.55;;
4448;SDS011;2237;51.870;6.160;2023-11-18T01:22:37;31.55;;;10.73;;
4448;SDS011;2237;51.870;6.160;2023-11-18T01:25:04;28.17;;;10.38;;
4448;SDS011;2237;51.870;6.160;2023-11-18T01:27:32;35.28;;;11.40;;
4448;SDS011;2237;51.870;6.160;2023-11-18T01:30:00;27.48;;;10.15;;
4448;SDS011;2237;51.870;6.160;2023-11-18T01:32:27;28.08;;;10.15;;
4448;SDS011;2237;51.870;6.160;2023-11-18T01:34:56;32.90;;;10.63;;
4448;SDS011;2237;51.870;6.160;2023-11-18T01:37:23;29.58;;;9.85;;
4448;SDS011;2237;51.870;6.160;2023-11-18T01:39:50;34.08;;;10.13;;
4448;SDS011;2237;51.870;6.160;2023-11-18T01:42:17;28.67;;;10.85;;
4448;SDS011;2237;51.870;6.160;2023-11-18T01:44:43;34.22;;;10.18;;
4448;SDS011;2237;51.870;6.160;2023-11-18T01:47:10;28.58;;;9.32;;
4448;SDS011;2237;51.870;6.160;2023-11-18T01:49:38;31.52;;;10.32;;
4448;SDS011;2237;51.870;6.160;2023-11-18T01:52:07;28.10;;;9.63;;
4448;SDS011;2237;51.870;6.160;2023-11-18T01:54:35;33.67;;;10.32;;
4448;SDS011;2237;51.870;6.160;2023-11-18T01:57:04;29.27;;;10.32;;
4448;SDS011;2237;51.870;6.160;2023-11-18T01:59:32;26.58;;;10.32;;
4448;SDS011;2237;51.870;6.160;2023-11-18T02:01:59;25.95;;;9.77;;
4448;SDS011;2237;51.870;6.160;2023-11-18T02:04:28;31.95;;;10.68;;
4448;SDS011;2237;51.870;6.160;2023-11-18T02:06:56;35.00;;;10.98;;
4448;SDS011;2237;51.870;6.160;2023-11-18T02:09:23;28.73;;;10.45;;
4448;SDS011;2237;51.870;6.160;2023-11-18T02:17:05;26.38;;;9.40;;
4448;SDS011;2237;51.870;6.160;2023-11-18T02:19:35;27.13;;;10.33;;
4448;SDS011;2237;51.870;6.160;2023-11-18T02:22:05;32.30;;;9.38;;
4448;SDS011;2237;51.870;6.160;2023-11-18T02:24:37;26.75;;;9.50;;
4448;SDS011;2237;51.870;6.160;2023-11-18T02:27:04;31.00;;;10.07;;
4448;SDS011;2237;51.870;6.160;2023-11-18T02:29:38;25.92;;;9.60;;
4448;SDS011;2237;51.870;6.160;2023-11-18T02:37:37;32.42;;;10.23;;
4448;SDS011;2237;51.870;6.160;2023-11-18T02:40:06;24.60;;;9.18;;
4448;SDS011;2237;51.870;6.160;2023-11-18T02:42:43;23.90;;;9.10;;
4448;SDS011;2237;51.870;6.160;2023-11-18T02:45:12;27.58;;;9.90;;
4448;SDS011;2237;51.870;6.160;2023-11-18T02:47:46;32.00;;;10.45;;
4448;SDS011;2237;51.870;6.160;2023-11-18T02:50:14;24.17;;;8.02;;
4448;SDS011;2237;51.870;6.160;2023-11-18T02:52:41;27.70;;;9.85;;
4448;SDS011;2237;51.870;6.160;2023-11-18T02:55:08;24.55;;;9.20;;
4448;SDS011;2237;51.870;6.160;2023-11-18T02:57:35;23.48;;;9.60;;
4448;SDS011;2237;51.870;6.160;2023-11-18T03:00:05;27.58;;;9.82;;
4448;SDS011;2237;51.870;6.160;2023-11-18T03:02:37;26.30;;;9.85;;
4448;SDS011;2237;51.870;6.160;2023-11-18T03:05:06;24.23;;;9.02;;
4448;SDS011;2237;51.870;6.160;2023-11-18T03:07:33;24.15;;;9.50;;
4448;SDS011;2237;51.870;6.160;2023-11-18T03:10:00;20.35;;;8.15;;
4448;SDS011;2237;51.870;6.160;2023-11-18T03:12:26;22.55;;;8.48;;
4448;SDS011;2237;51.870;6.160;2023-11-18T03:14:53;30.50;;;9.60;;
4448;SDS011;2237;51.870;6.160;2023-11-18T03:17:20;26.35;;;9.10;;
4448;SDS011;2237;51.870;6.160;2023-11-18T03:19:47;22.83;;;8.18;;
4448;SDS011;2237;51.870;6.160;2023-11-18T03:22:13;18.50;;;7.35;;
4448;SDS011;2237;51.870;6.160;2023-11-18T03:24:39;28.67;;;9.95;;
4448;SDS011;2237;51.870;6.160;2023-11-18T03:27:06;25.15;;;9.30;;
4448;SDS011;2237;51.870;6.160;2023-11-18T03:29:34;20.92;;;8.38;;
4448;SDS011;2237;51.870;6.160;2023-11-18T03:32:02;25.83;;;9.07;;
4448;SDS011;2237;51.870;6.160;2023-11-18T03:34:28;29.08;;;10.27;;
4448;SDS011;2237;51.870;6.160;2023-11-18T03:36:55;31.58;;;9.68;;
4448;SDS011;2237;51.870;6.160;2023-11-18T03:39:23;27.88;;;9.70;;
4448;SDS011;2237;51.870;6.160;2023-11-18T03:41:49;25.38;;;9.18;;
4448;SDS011;2237;51.870;6.160;2023-11-18T03:44:16;27.95;;;9.77;;
4448;SDS011;2237;51.870;6.160;2023-11-18T03:46:43;28.17;;;9.65;;
4448;SDS011;2237;51.870;6.160;2023-11-18T03:49:09;27.92;;;9.02;;
4448;SDS011;2237;51.870;6.160;2023-11-18T03:51:36;28.65;;;9.73;;
4448;SDS011;2237;51.870;6.160;2023-11-18T03:54:02;30.20;;;9.65;;
4448;SDS011;2237;51.870;6.160;2023-11-18T03:56:29;25.33;;;9.68;;
4448;SDS011;2237;51.870;6.160;2023-11-18T03:58:55;28.65;;;10.05;;
4448;SDS011;2237;51.870;6.160;2023-11-18T04:01:22;24.85;;;9.85;;
4448;SDS011;2237;51.870;6.160;2023-11-18T04:03:49;29.98;;;9.43;;
4448;SDS011;2237;51.870;6.160;2023-11-18T04:06:16;31.63;;;10.07;;
4448;SDS011;2237;51.870;6.160;2023-11-18T04:08:46;24.83;;;8.80;;
4448;SDS011;2237;51.870;6.160;2023-11-18T04:11:13;20.52;;;7.43;;
4448;SDS011;2237;51.870;6.160;2023-11-18T04:13:40;27.33;;;8.73;;
4448;SDS011;2237;51.870;6.160;2023-11-18T04:16:13;27.15;;;9.32;;
4448;SDS011;2237;51.870;6.160;2023-11-18T04:18:45;24.73;;;9.13;;
4448;SDS011;2237;51.870;6.160;2023-11-18T04:21:12;26.50;;;9.43;;
4448;SDS011;2237;51.870;6.160;2023-11-18T04:23:39;24.15;;;9.02;;
4448;SDS011;2237;51.870;6.160;2023-11-18T04:26:07;24.30;;;9.57;;
4448;SDS011;2237;51.870;6.160;2023-11-18T04:28:35;24.85;;;9.10;;
4448;SDS011;2237;51.870;6.160;2023-11-18T04:31:02;22.98;;;9.48;;
4448;SDS011;2237;51.870;6.160;2023-11-18T04:33:29;28.88;;;9.45;;
4448;SDS011;2237;51.870;6.160;2023-11-18T04:35:55;22.20;;;9.02;;
4448;SDS011;2237;51.870;6.160;2023-11-18T04:38:26;21.02;;;9.00;;
4448;SDS011;2237;51.870;6.160;2023-11-18T04:40:52;24.42;;;9.07;;
4448;SDS011;2237;51.870;6.160;2023-11-18T04:43:20;23.05;;;9.48;;
4448;SDS011;2237;51.870;6.160;2023-11-18T04:46:04;22.90;;;8.93;;
4448;SDS011;2237;51.870;6.160;2023-11-18T04:48:31;26.98;;;9.68;;
4448;SDS011;2237;51.870;6.160;2023-11-18T04:50:59;24.88;;;9.43;;
4448;SDS011;2237;51.870;6.160;2023-11-18T04:53:26;32.47;;;9.55;;
4448;SDS011;2237;51.870;6.160;2023-11-18T04:55:52;23.85;;;8.88;;
4448;SDS011;2237;51.870;6.160;2023-11-18T04:58:20;17.83;;;6.43;;
4448;SDS011;2237;51.870;6.160;2023-11-18T05:00:47;28.08;;;8.20;;
4448;SDS011;2237;51.870;6.160;2023-11-18T05:03:15;20.88;;;9.10;;
4448;SDS011;2237;51.870;6.160;2023-11-18T05:05:42;22.48;;;8.50;;
4448;SDS011;2237;51.870;6.160;2023-11-18T05:08:17;25.23;;;8.73;;
4448;SDS011;2237;51.870;6.160;2023-11-18T05:10:48;23.05;;;8.25;;
4448;SDS011;2237;51.870;6.160;2023-11-18T05:13:16;19.80;;;8.20;;
4448;SDS011;2237;51.870;6.160;2023-11-18T05:15:43;20.27;;;8.13;;
4448;SDS011;2237;51.870;6.160;2023-11-18T05:18:11;23.20;;;9.32;;
4448;SDS011;2237;51.870;6.160;2023-11-18T05:20:41;22.98;;;9.23;;
4448;SDS011;2237;51.870;6.160;2023-11-18T05:23:08;20.63;;;8.73;;
4448;SDS011;2237;51.870;6.160;2023-11-18T05:25:41;22.63;;;8.23;;
4448;SDS011;2237;51.870;6.160;2023-11-18T05:28:09;23.40;;;9.15;;
4448;SDS011;2237;51.870;6.160;2023-11-18T05:30:37;25.85;;;9.38;;
4448;SDS011;2237;51.870;6.160;2023-11-18T05:33:04;23.80;;;8.48;;
4448;SDS011;2237;51.870;6.160;2023-11-18T05:35:32;25.67;;;8.40;;
4448;SDS011;2237;51.870;6.160;2023-11-18T05:37:59;23.25;;;8.52;;
4448;SDS011;2237;51.870;6.160;2023-11-18T05:40:26;21.63;;;8.00;;
4448;SDS011;2237;51.870;6.160;2023-11-18T05:42:55;21.42;;;7.63;;
4448;SDS011;2237;51.870;6.160;2023-11-18T05:45:21;22.58;;;8.85;;
4448;SDS011;2237;51.870;6.160;2023-11-18T05:47:54;23.55;;;8.45;;
4448;SDS011;2237;51.870;6.160;2023-11-18T05:50:22;22.50;;;8.68;;
4448;SDS011;2237;51.870;6.160;2023-11-18T05:52:50;21.50;;;8.82;;
4448;SDS011;2237;51.870;6.160;2023-11-18T05:55:17;20.08;;;8.40;;
4448;SDS011;2237;51.870;6.160;2023-11-18T05:57:43;20.70;;;8.73;;
4448;SDS011;2237;51.870;6.160;2023-11-18T06:00:11;23.75;;;8.05;;
4448;SDS011;2237;51.870;6.160;2023-11-18T06:02:50;22.30;;;8.77;;
4448;SDS011;2237;51.870;6.160;2023-11-18T06:05:18;23.42;;;8.48;;
4448;SDS011;2237;51.870;6.160;2023-11-18T06:07:44;24.50;;;9.35;;
4448;SDS011;2237;51.870;6.160;2023-11-18T06:10:11;20.35;;;7.88;;
4448;SDS011;2237;51.870;6.160;2023-11-18T06:12:38;21.30;;;8.90;;
4448;SDS011;2237;51.870;6.160;2023-11-18T06:15:07;18.67;;;8.50;;
4448;SDS011;2237;51.870;6.160;2023-11-18T06:17:35;17.75;;;6.70;;
4448;SDS011;2237;51.870;6.160;2023-11-18T06:20:01;25.15;;;8.07;;
4448;SDS011;2237;51.870;6.160;2023-11-18T06:22:32;16.38;;;6.18;;
4448;SDS011;2237;51.870;6.160;2023-11-18T06:24:58;22.42;;;8.40;;
4448;SDS011;2237;51.870;6.160;2023-11-18T06:27:25;23.98;;;8.95;;
4448;SDS011;2237;51.870;6.160;2023-11-18T06:29:51;26.48;;;8.48;;
4448;SDS011;2237;51.870;6.160;2023-11-18T06:32:20;21.98;;;7.78;;
4448;SDS011;2237;51.870;6.160;2023-11-18T06:34:47;25.00;;;8.38;;
4448;SDS011;2237;51.870;6.160;2023-11-18T06:37:15;20.00;;;8.38;;
4448;SDS011;2237;51.870;6.160;2023-11-18T06:39:41;28.08;;;9.20;;
4448;SDS011;2237;51.870;6.160;2023-11-18T06:42:10;31.67;;;9.45;;
4448;SDS011;2237;51.870;6.160;2023-11-18T06:44:37;24.20;;;8.65;;
4448;SDS011;2237;51.870;6.160;2023-11-18T06:47:04;25.92;;;9.35;;
4448;SDS011;2237;51.870;6.160;2023-11-18T06:49:32;27.88;;;8.63;;
4448;SDS011;2237;51.870;6.160;2023-11-18T06:52:03;29.02;;;9.15;;
4448;SDS011;2237;51.870;6.160;2023-11-18T06:54:30;28.77;;;10.00;;
4448;SDS011;2237;51.870;6.160;2023-11-18T06:56:59;29.20;;;9.18;;
4448;SDS011;2237;51.870;6.160;2023-11-18T06:59:25;25.88;;;9.13;;
4448;SDS011;2237;51.870;6.160;2023-11-18T07:01:52;26.45;;;9.35;;
4448;SDS011;2237;51.870;6.160;2023-11-18T07:04:18;24.00;;;8.00;;
4448;SDS011;2237;51.870;6.160;2023-11-18T07:06:45;33.45;;;9.52;;
4448;SDS011;2237;51.870;6.160;2023-11-18T07:09:11;22.58;;;8.10;;
4448;SDS011;2237;51.870;6.160;2023-11-18T07:11:47;35.97;;;10.15;;
4448;SDS011;2237;51.870;6.160;2023-11-18T07:14:14;28.38;;;8.93;;
4448;SDS011;2237;51.870;6.160;2023-11-18T07:16:41;26.42;;;9.25;;
4448;SDS011;2237;51.870;6.160;2023-11-18T07:19:08;30.15;;;9.63;;
4448;SDS011;2237;51.870;6.160;2023-11-18T07:21:41;27.20;;;8.85;;
4448;SDS011;2237;51.870;6.160;2023-11-18T07:24:07;21.70;;;9.05;;
4448;SDS011;2237;51.870;6.160;2023-11-18T07:26:34;23.30;;;8.65;;
4448;SDS011;2237;51.870;6.160;2023-11-18T07:29:00;32.97;;;10.88;;
4448;SDS011;2237;51.870;6.160;2023-11-18T07:31:27;21.60;;;7.55;;
4448;SDS011;2237;51.870;6.160;2023-11-18T07:33:54;29.65;;;9.98;;
4448;SDS011;2237;51.870;6.160;2023-11-18T07:36:22;24.90;;;8.77;;
4448;SDS011;2237;51.870;6.160;2023-11-18T07:38:48;23.25;;;8.30;;
4448;SDS011;2237;51.870;6.160;2023-11-18T07:41:18;30.98;;;10.32;;
4448;SDS011;2237;51.870;6.160;2023-11-18T07:43:50;25.80;;;7.22;;
4448;SDS011;2237;51.870;6.160;2023-11-18T07:46:18;27.85;;;9.65;;
4448;SDS011;2237;51.870;6.160;2023-11-18T07:48:48;31.23;;;9.77;;
4448;SDS011;2237;51.870;6.160;2023-11-18T07:51:15;27.27;;;9.23;;
4448;SDS011;2237;51.870;6.160;2023-11-18T07:53:42;26.27;;;9.18;;
4448;SDS011;2237;51.870;6.160;2023-11-18T07:56:08;29.90;;;10.07;;
4448;SDS011;2237;51.870;6.160;2023-11-18T07:58:38;36.23;;;16.20;;
4448;SDS011;2237;51.870;6.160;2023-11-18T08:01:05;26.10;;;9.70;;
4448;SDS011;2237;51.870;6.160;2023-11-18T08:03:35;32.15;;;9.35;;
4448;SDS011;2237;51.870;6.160;2023-11-18T08:06:03;35.10;;;9.93;;
4448;SDS011;2237;51.870;6.160;2023-11-18T08:08:33;26.90;;;9.88;;
4448;SDS011;2237;51.870;6.160;2023-11-18T08:11:06;23.80;;;9.85;;
4448;SDS011;2237;51.870;6.160;2023-11-18T08:13:36;30.25;;;13.48;;
4448;SDS011;2237;51.870;6.160;2023-11-18T08:16:02;31.85;;;11.23;;
4448;SDS011;2237;51.870;6.160;2023-11-18T08:18:29;25.98;;;9.50;;
4448;SDS011;2237;51.870;6.160;2023-11-18T08:20:57;26.48;;;9.88;;
4448;SDS011;2237;51.870;6.160;2023-11-18T08:23:26;27.33;;;9.52;;
4448;SDS011;2237;51.870;6.160;2023-11-18T08:25:54;21.65;;;6.88;;
4448;SDS011;2237;51.870;6.160;2023-11-18T08:28:21;26.23;;;8.55;;
4448;SDS011;2237;51.870;6.160;2023-11-18T08:30:48;22.80;;;7.93;;
4448;SDS011;2237;51.870;6.160;2023-11-18T08:33:17;29.05;;;12.00;;
4448;SDS011;2237;51.870;6.160;2023-11-18T08:35:44;28.95;;;11.95;;
4448;SDS011;2237;51.870;6.160;2023-11-18T08:38:11;29.30;;;11.43;;
4448;SDS011;2237;51.870;6.160;2023-11-18T08:40:38;22.65;;;8.20;;
4448;SDS011;2237;51.870;6.160;2023-11-18T08:43:05;23.40;;;8.32;;
4448;SDS011;2237;51.870;6.160;2023-11-18T08:45:34;19.50;;;7.30;;
4448;SDS011;2237;51.870;6.160;2023-11-18T08:48:01;23.20;;;8.52;;
4448;SDS011;2237;51.870;6.160;2023-11-18T08:50:35;25.10;;;8.63;;
4448;SDS011;2237;51.870;6.160;2023-11-18T08:53:02;22.13;;;6.60;;
4448;SDS011;2237;51.870;6.160;2023-11-18T08:55:35;19.98;;;6.90;;
4448;SDS011;2237;51.870;6.160;2023-11-18T08:58:10;21.42;;;7.70;;
4448;SDS011;2237;51.870;6.160;2023-11-18T09:00:56;20.88;;;6.63;;
4448;SDS011;2237;51.870;6.160;2023-11-18T09:03:40;22.40;;;7.40;;
4448;SDS011;2237;51.870;6.160;2023-11-18T09:06:15;18.52;;;6.25;;
4448;SDS011;2237;51.870;6.160;2023-11-18T09:08:45;18.73;;;5.38;;
4448;SDS011;2237;51.870;6.160;2023-11-18T09:11:18;18.50;;;6.40;;
4448;SDS011;2237;51.870;6.160;2023-11-18T09:13:46;19.55;;;7.13;;
4448;SDS011;2237;51.870;6.160;2023-11-18T09:16:15;18.30;;;6.82;;
4448;SDS011;2237;51.870;6.160;2023-11-18T09:18:43;21.38;;;6.88;;
4448;SDS011;2237;51.870;6.160;2023-11-18T09:21:11;26.58;;;11.20;;
4448;SDS011;2237;51.870;6.160;2023-11-18T09:23:42;14.88;;;6.95;;
4448;SDS011;2237;51.870;6.160;2023-11-18T09:26:09;16.98;;;6.20;;
4448;SDS011;2237;51.870;6.160;2023-11-18T09:28:37;23.13;;;6.88;;
4448;SDS011;2237;51.870;6.160;2023-11-18T09:31:04;16.92;;;5.57;;
4448;SDS011;2237;51.870;6.160;2023-11-18T09:33:31;15.45;;;5.80;;
4448;SDS011;2237;51.870;6.160;2023-11-18T09:36:00;17.85;;;5.68;;
4448;SDS011;2237;51.870;6.160;2023-11-18T09:38:27;12.80;;;4.60;;
4448;SDS011;2237;51.870;6.160;2023-11-18T09:40:57;17.40;;;5.57;;
4448;SDS011;2237;51.870;6.160;2023-11-18T09:43:29;13.27;;;5.03;;
4448;SDS011;2237;51.870;6.160;2023-11-18T09:46:03;10.30;;;4.22;;
4448;SDS011;2237;51.870;6.160;2023-11-18T09:48:45;11.57;;;4.18;;
4448;SDS011;2237;51.870;6.160;2023-11-18T09:51:23;13.48;;;4.88;;
4448;SDS011;2237;51.870;6.160;2023-11-18T09:53:54;16.33;;;5.28;;
4448;SDS011;2237;51.870;6.160;2023-11-18T09:56:23;16.58;;;6.38;;
4448;SDS011;2237;51.870;6.160;2023-11-18T10:01:50;24.45;;;9.93;;
4448;SDS011;2237;51.870;6.160;2023-11-18T10:04:20;23.73;;;9.45;;
4448;SDS011;2237;51.870;6.160;2023-11-18T10:06:46;21.42;;;7.70;;
4448;SDS011;2237;51.870;6.160;2023-11-18T10:09:19;15.40;;;6.70;;
4448;SDS011;2237;51.870;6.160;2023-11-18T10:11:55;16.88;;;5.78;;
4448;SDS011;2237;51.870;6.160;2023-11-18T10:14:35;15.05;;;5.10;;
4448;SDS011;2237;51.870;6.160;2023-11-18T10:17:05;14.82;;;6.43;;
4448;SDS011;2237;51.870;6.160;2023-11-18T10:19:54;18.50;;;5.75;;
4448;SDS011;2237;51.870;6.160;2023-11-18T10:24:54;13.27;;;4.38;;
4448;SDS011;2237;51.870;6.160;2023-11-18T10:27:24;18.25;;;5.05;;
4448;SDS011;2237;51.870;6.160;2023-11-18T10:29:55;15.32;;;5.68;;
4448;SDS011;2237;51.870;6.160;2023-11-18T10:32:22;16.57;;;6.30;;
4448;SDS011;2237;51.870;6.160;2023-11-18T10:34:55;18.88;;;5.60;;
4448;SDS011;2237;51.870;6.160;2023-11-18T10:37:22;10.30;;;4.35;;
4448;SDS011;2237;51.870;6.160;2023-11-18T10:39:49;22.02;;;8.68;;
4448;SDS011;2237;51.870;6.160;2023-11-18T10:42:18;39.15;;;12.35;;
4448;SDS011;2237;51.870;6.160;2023-11-18T10:44:57;63.00;;;22.27;;
4448;SDS011;2237;51.870;6.160;2023-11-18T10:47:25;18.77;;;7.68;;
4448;SDS011;2237;51.870;6.160;2023-11-18T10:49:52;19.52;;;7.22;;
4448;SDS011;2237;51.870;6.160;2023-11-18T10:52:22;21.83;;;8.77;;
4448;SDS011;2237;51.870;6.160;2023-11-18T10:54:50;12.38;;;5.20;;
4448;SDS011;2237;51.870;6.160;2023-11-18T10:57:20;16.25;;;5.32;;
4448;SDS011;2237;51.870;6.160;2023-11-18T11:00:04;9.05;;;2.75;;
4448;SDS011;2237;51.870;6.160;2023-11-18T11:02:42;10.93;;;4.68;;
4448;SDS011;2237;51.870;6.160;2023-11-18T11:05:09;13.25;;;3.85;;
4448;SDS011;2237;51.870;6.160;2023-11-18T11:07:47;14.98;;;4.97;;
4448;SDS011;2237;51.870;6.160;2023-11-18T11:10:15;14.48;;;4.97;;
4448;SDS011;2237;51.870;6.160;2023-11-18T11:12:51;14.43;;;4.32;;
4448;SDS011;2237;51.870;6.160;2023-11-18T11:15:29;17.15;;;4.15;;
4448;SDS011;2237;51.870;6.160;2023-11-18T11:18:13;9.70;;;3.95;;
4448;SDS011;2237;51.870;6.160;2023-11-18T11:20:53;8.55;;;3.83;;
4448;SDS011;2237;51.870;6.160;2023-11-18T11:23:42;13.05;;;4.00;;
4448;SDS011;2237;51.870;6.160;2023-11-18T11:26:46;10.13;;;4.03;;
4448;SDS011;2237;51.870;6.160;2023-11-18T11:29:36;9.95;;;3.45;;
4448;SDS011;2237;51.870;6.160;2023-11-18T11:34:40;13.57;;;4.28;;
4448;SDS011;2237;51.870;6.160;2023-11-18T11:37:11;9.88;;;3.80;;
4448;SDS011;2237;51.870;6.160;2023-11-18T11:39:41;11.45;;;3.90;;
4448;SDS011;2237;51.870;6.160;2023-11-18T11:42:13;10.55;;;3.55;;
4448;SDS011;2237;51.870;6.160;2023-11-18T11:44:44;10.20;;;3.70;;
4448;SDS011;2237;51.870;6.160;2023-11-18T11:47:11;9.50;;;3.00;;
4448;SDS011;2237;51.870;6.160;2023-11-18T11:49:49;21.08;;;8.63;;
4448;SDS011;2237;51.870;6.160;2023-11-18T11:52:28;12.25;;;5.45;;
4448;SDS011;2237;51.870;6.160;2023-11-18T11:55:00;9.23;;;4.28;;
4448;SDS011;2237;51.870;6.160;2023-11-18T12:00:08;10.82;;;3.55;;
4448;SDS011;2237;51.870;6.160;2023-11-18T12:02:48;8.70;;;3.53;;
4448;SDS011;2237;51.870;6.160;2023-11-18T12:05:19;7.13;;;2.83;;
4448;SDS011;2237;51.870;6.160;2023-11-18T12:07:46;4.73;;;2.37;;
4448;SDS011;2237;51.870;6.160;2023-11-18T12:10:13;12.10;;;3.83;;
4448;SDS011;2237;51.870;6.160;2023-11-18T12:12:47;9.65;;;3.88;;
4448;SDS011;2237;51.870;6.160;2023-11-18T12:15:14;5.05;;;2.50;;
4448;SDS011;2237;51.870;6.160;2023-11-18T12:20:43;5.85;;;2.75;;
4448;SDS011;2237;51.870;6.160;2023-11-18T12:23:14;10.33;;;3.63;;
4448;SDS011;2237;51.870;6.160;2023-11-18T12:25:41;9.48;;;3.28;;
4448;SDS011;2237;51.870;6.160;2023-11-18T12:28:09;8.43;;;3.28;;
4448;SDS011;2237;51.870;6.160;2023-11-18T12:30:48;11.50;;;3.50;;
4448;SDS011;2237;51.870;6.160;2023-11-18T12:42:05;9.13;;;2.95;;
4448;SDS011;2237;51.870;6.160;2023-11-18T12:47:22;5.97;;;2.30;;
4448;SDS011;2237;51.870;6.160;2023-11-18T12:49:54;6.28;;;2.75;;
4448;SDS011;2237;51.870;6.160;2023-11-18T12:52:21;8.73;;;2.28;;
4448;SDS011;2237;51.870;6.160;2023-11-18T12:54:49;9.00;;;2.38;;
4448;SDS011;2237;51.870;6.160;2023-11-18T12:57:26;8.45;;;2.83;;
4448;SDS011;2237;51.870;6.160;2023-11-18T12:59:57;6.93;;;2.65;;
4448;SDS011;2237;51.870;6.160;2023-11-18T13:02:23;4.60;;;1.73;;
4448;SDS011;2237;51.870;6.160;2023-11-18T13:04:50;3.33;;;1.27;;
4448;SDS011;2237;51.870;6.160;2023-11-18T13:07:19;3.75;;;1.50;;
4448;SDS011;2237;51.870;6.160;2023-11-18T13:09:50;7.20;;;2.15;;
4448;SDS011;2237;51.870;6.160;2023-11-18T13:12:20;5.55;;;2.20;;
4448;SDS011;2237;51.870;6.160;2023-11-18T13:14:49;6.15;;;2.10;;
4448;SDS011;2237;51.870;6.160;2023-11-18T13:17:17;5.35;;;0.98;;
4448;SDS011;2237;51.870;6.160;2023-11-18T13:19:44;5.50;;;2.00;;
4448;SDS011;2237;51.870;6.160;2023-11-18T13:22:13;4.22;;;1.92;;
4448;SDS011;2237;51.870;6.160;2023-11-18T13:24:41;7.05;;;1.75;;
4448;SDS011;2237;51.870;6.160;2023-11-18T13:27:15;9.32;;;2.22;;
4448;SDS011;2237;51.870;6.160;2023-11-18T13:29:46;4.13;;;1.42;;
4448;SDS011;2237;51.870;6.160;2023-11-18T13:32:19;4.10;;;2.00;;
4448;SDS011;2237;51.870;6.160;2023-11-18T13:34:52;5.90;;;2.17;;
4448;SDS011;2237;51.870;6.160;2023-11-18T13:37:18;7.30;;;2.25;;
4448;SDS011;2237;51.870;6.160;2023-11-18T13:39:54;4.38;;;2.08;;
4448;SDS011;2237;51.870;6.160;2023-11-18T13:42:25;4.50;;;1.50;;
4448;SDS011;2237;51.870;6.160;2023-11-18T13:45:04;4.55;;;1.42;;
4448;SDS011;2237;51.870;6.160;2023-11-18T13:47:34;2.70;;;1.30;;
4448;SDS011;2237;51.870;6.160;2023-11-18T13:50:01;3.00;;;1.80;;
4448;SDS011;2237;51.870;6.160;2023-11-18T13:52:28;2.50;;;1.50;;
4448;SDS011;2237;51.870;6.160;2023-11-18T13:54:56;3.25;;;1.50;;
4448;SDS011;2237;51.870;6.160;2023-11-18T13:57:23;3.33;;;1.13;;
4448;SDS011;2237;51.870;6.160;2023-11-18T13:59:52;4.53;;;1.95;;
4448;SDS011;2237;51.870;6.160;2023-11-18T14:02:20;3.67;;;1.50;;
4448;SDS011;2237;51.870;6.160;2023-11-18T14:04:50;4.50;;;1.83;;
4448;SDS011;2237;51.870;6.160;2023-11-18T14:07:16;2.45;;;1.33;;
4448;SDS011;2237;51.870;6.160;2023-11-18T14:09:44;4.38;;;1.50;;
4448;SDS011;2237;51.870;6.160;2023-11-18T14:12:12;6.07;;;2.08;;
4448;SDS011;2237;51.870;6.160;2023-11-18T14:14:39;4.63;;;1.90;;
4448;SDS011;2237;51.870;6.160;2023-11-18T14:17:06;1.95;;;1.05;;
4448;SDS011;2237;51.870;6.160;2023-11-18T14:19:33;3.97;;;1.92;;
4448;SDS011;2237;51.870;6.160;2023-11-18T14:22:01;5.18;;;2.25;;
4448;SDS011;2237;51.870;6.160;2023-11-18T14:24:33;2.47;;;0.98;;
4448;SDS011;2237;51.870;6.160;2023-11-18T14:27:00;4.95;;;1.27;;
4448;SDS011;2237;51.870;6.160;2023-11-18T14:29:27;4.70;;;1.73;;
4448;SDS011;2237;51.870;6.160;2023-11-18T14:31:55;4.05;;;1.40;;
4448;SDS011;2237;51.870;6.160;2023-11-18T14:34:22;4.80;;;1.55;;
4448;SDS011;2237;51.870;6.160;2023-11-18T14:36:48;4.30;;;1.48;;
4448;SDS011;2237;51.870;6.160;2023-11-18T14:39:15;6.55;;;1.80;;
4448;SDS011;2237;51.870;6.160;2023-11-18T14:41:44;2.72;;;1.40;;
4448;SDS011;2237;51.870;6.160;2023-11-18T14:44:11;2.65;;;1.27;;
4448;SDS011;2237;51.870;6.160;2023-11-18T14:46:38;3.92;;;1.52;;
4448;SDS011;2237;51.870;6.160;2023-11-18T14:49:07;1.85;;;0.93;;
4448;SDS011;2237;51.870;6.160;2023-11-18T14:51:33;3.47;;;1.60;;
4448;SDS011;2237;51.870;6.160;2023-11-18T14:54:00;3.22;;;1.70;;
4448;SDS011;2237;51.870;6.160;2023-11-18T14:56:26;5.22;;;1.50;;
4448;SDS011;2237;51.870;6.160;2023-11-18T14:58:53;5.82;;;1.95;;
4448;SDS011;2237;51.870;6.160;2023-11-18T15:01:19;6.82;;;1.75;;
4448;SDS011;2237;51.870;6.160;2023-11-18T15:03:46;4.28;;;1.58;;
4448;SDS011;2237;51.870;6.160;2023-11-18T15:06:12;3.38;;;1.38;;
4448;SDS011;2237;51.870;6.160;2023-11-18T15:08:39;3.13;;;1.17;;
4448;SDS011;2237;51.870;6.160;2023-11-18T15:11:10;2.22;;;1.30;;
4448;SDS011;2237;51.870;6.160;2023-11-18T15:13:41;2.53;;;1.48;;
4448;SDS011;2237;51.870;6.160;2023-11-18T15:16:08;2.63;;;1.30;;
4448;SDS011;2237;51.870;6.160;2023-11-18T15:18:34;2.33;;;1.30;;
4448;SDS011;2237;51.870;6.160;2023-11-18T15:21:01;2.28;;;1.35;;
4448;SDS011;2237;51.870;6.160;2023-11-18T15:23:28;3.45;;;1.08;;
4448;SDS011;2237;51.870;6.160;2023-11-18T15:25:54;2.20;;;1.15;;
4448;SDS011;2237;51.870;6.160;2023-11-18T15:28:22;3.13;;;1.88;;
4448;SDS011;2237;51.870;6.160;2023-11-18T15:30:49;5.07;;;1.90;;
4448;SDS011;2237;51.870;6.160;2023-11-18T15:33:15;3.40;;;1.70;;
4448;SDS011;2237;51.870;6.160;2023-11-18T15:35:42;2.45;;;1.27;;
4448;SDS011;2237;51.870;6.160;2023-11-18T15:38:09;3.42;;;1.40;;
4448;SDS011;2237;51.870;6.160;2023-11-18T15:40:42;2.20;;;1.15;;
4448;SDS011;2237;51.870;6.160;2023-11-18T15:43:09;4.43;;;1.67;;
4448;SDS011;2237;51.870;6.160;2023-11-18T15:45:38;2.85;;;1.42;;
4448;SDS011;2237;51.870;6.160;2023-11-18T15:48:05;1.95;;;1.08;;
4448;SDS011;2237;51.870;6.160;2023-11-18T15:50:33;2.30;;;1.40;;